AXC weather

Aramac Airport
Queensland, Australia

Public forecast

Using degrees Celsius for public forecast. Weather courtesy of forecast.io.

METAR (pilot weather report)

Closest report is Longreach Airport, 60.1 nm (111.2 km) WSW. Retrieved 2019/04/21 07:00 UTC (60 minutes ago):

YLRE 210700Z AUTO 10009KT 9999 // BKN100 29/16 Q1014

TAF (pilot weather forecast)

Forecast is more than 12 hours old.

Closest forecast is Rockhampton Airport, 289.9 nm (536.9 km) E. Retrieved 2019/04/20 18:36 UTC (13 hours ago):

TAF YBRK 201627Z 2018/2118 15008KT 9999 SCT015 BKN022 FM202300 11017KT 9999 -SHRA SCT025 BKN040 FM210800 13008KT 9999 SCT020 BKN030 FM211000 14008KT 9999 SCT015 BKN020 TEMPO 2018/2022 9999 NSW BKN012 INTER 2101/2110 11020G30KT 3000 SHRA SCT015 BKN025